sensor_id;sensor_type;location;lat;lon;timestamp;P1;durP1;ratioP1;P2;durP2;ratioP2
59418;SDS011;45224;50.904;6.038;2024-03-07T00:00:59;31.17;;;15.77;;
59418;SDS011;45224;50.904;6.038;2024-03-07T00:02:30;42.55;;;19.25;;
59418;SDS011;45224;50.904;6.038;2024-03-07T00:04:00;38.80;;;17.45;;
59418;SDS011;45224;50.904;6.038;2024-03-07T00:05:31;36.53;;;18.08;;
59418;SDS011;45224;50.904;6.038;2024-03-07T00:07:02;35.60;;;17.05;;
59418;SDS011;45224;50.904;6.038;2024-03-07T00:08:37;36.45;;;17.45;;
59418;SDS011;45224;50.904;6.038;2024-03-07T00:10:08;38.47;;;17.85;;
59418;SDS011;45224;50.904;6.038;2024-03-07T00:11:39;36.78;;;18.17;;
59418;SDS011;45224;50.904;6.038;2024-03-07T00:13:11;35.30;;;17.17;;
59418;SDS011;45224;50.904;6.038;2024-03-07T00:14:43;35.65;;;17.67;;
59418;SDS011;45224;50.904;6.038;2024-03-07T00:16:13;37.25;;;17.10;;
59418;SDS011;45224;50.904;6.038;2024-03-07T00:17:44;34.72;;;17.55;;
59418;SDS011;45224;50.904;6.038;2024-03-07T00:19:15;37.60;;;18.35;;
59418;SDS011;45224;50.904;6.038;2024-03-07T00:20:45;36.58;;;17.77;;
59418;SDS011;45224;50.904;6.038;2024-03-07T00:22:15;35.42;;;16.88;;
59418;SDS011;45224;50.904;6.038;2024-03-07T00:23:46;39.38;;;18.45;;
59418;SDS011;45224;50.904;6.038;2024-03-07T00:25:16;40.22;;;17.83;;
59418;SDS011;45224;50.904;6.038;2024-03-07T00:26:49;39.10;;;18.70;;
59418;SDS011;45224;50.904;6.038;2024-03-07T00:28:21;34.42;;;16.67;;
59418;SDS011;45224;50.904;6.038;2024-03-07T00:29:52;40.90;;;18.27;;
59418;SDS011;45224;50.904;6.038;2024-03-07T00:31:26;37.13;;;17.23;;
59418;SDS011;45224;50.904;6.038;2024-03-07T00:32:57;39.80;;;19.35;;
59418;SDS011;45224;50.904;6.038;2024-03-07T00:34:28;39.15;;;19.40;;
59418;SDS011;45224;50.904;6.038;2024-03-07T00:35:58;45.25;;;20.27;;
59418;SDS011;45224;50.904;6.038;2024-03-07T00:37:30;38.72;;;18.42;;
59418;SDS011;45224;50.904;6.038;2024-03-07T00:39:03;39.65;;;18.30;;
59418;SDS011;45224;50.904;6.038;2024-03-07T00:40:33;41.20;;;18.95;;
59418;SDS011;45224;50.904;6.038;2024-03-07T00:42:04;37.42;;;17.13;;
59418;SDS011;45224;50.904;6.038;2024-03-07T00:43:35;38.03;;;19.15;;
59418;SDS011;45224;50.904;6.038;2024-03-07T00:45:06;35.95;;;18.02;;
59418;SDS011;45224;50.904;6.038;2024-03-07T00:46:37;35.53;;;16.40;;
59418;SDS011;45224;50.904;6.038;2024-03-07T00:48:07;39.13;;;18.20;;
59418;SDS011;45224;50.904;6.038;2024-03-07T00:49:38;35.42;;;17.40;;
59418;SDS011;45224;50.904;6.038;2024-03-07T00:51:08;42.65;;;19.02;;
59418;SDS011;45224;50.904;6.038;2024-03-07T00:52:39;39.97;;;19.42;;
59418;SDS011;45224;50.904;6.038;2024-03-07T00:54:10;37.65;;;17.85;;
59418;SDS011;45224;50.904;6.038;2024-03-07T00:55:42;31.63;;;16.30;;
59418;SDS011;45224;50.904;6.038;2024-03-07T00:57:14;34.92;;;17.73;;
59418;SDS011;45224;50.904;6.038;2024-03-07T00:58:44;41.05;;;19.13;;
59418;SDS011;45224;50.904;6.038;2024-03-07T01:00:15;39.00;;;18.02;;
59418;SDS011;45224;50.904;6.038;2024-03-07T01:01:50;35.60;;;17.52;;
59418;SDS011;45224;50.904;6.038;2024-03-07T01:03:20;37.88;;;17.58;;
59418;SDS011;45224;50.904;6.038;2024-03-07T01:04:51;39.90;;;18.30;;
59418;SDS011;45224;50.904;6.038;2024-03-07T01:07:55;38.23;;;17.30;;
59418;SDS011;45224;50.904;6.038;2024-03-07T01:09:26;38.92;;;18.38;;
59418;SDS011;45224;50.904;6.038;2024-03-07T01:10:58;37.20;;;16.85;;
59418;SDS011;45224;50.904;6.038;2024-03-07T01:12:29;37.65;;;17.42;;
59418;SDS011;45224;50.904;6.038;2024-03-07T01:14:00;37.67;;;16.95;;
59418;SDS011;45224;50.904;6.038;2024-03-07T01:15:31;40.95;;;19.15;;
59418;SDS011;45224;50.904;6.038;2024-03-07T01:17:02;38.78;;;18.67;;
59418;SDS011;45224;50.904;6.038;2024-03-07T01:18:33;42.65;;;19.80;;
59418;SDS011;45224;50.904;6.038;2024-03-07T01:20:04;37.45;;;17.83;;
59418;SDS011;45224;50.904;6.038;2024-03-07T01:21:35;40.03;;;18.63;;
59418;SDS011;45224;50.904;6.038;2024-03-07T01:23:06;40.03;;;18.38;;
59418;SDS011;45224;50.904;6.038;2024-03-07T01:24:38;40.85;;;19.05;;
59418;SDS011;45224;50.904;6.038;2024-03-07T01:26:09;37.75;;;19.00;;
59418;SDS011;45224;50.904;6.038;2024-03-07T01:27:40;37.80;;;17.65;;
59418;SDS011;45224;50.904;6.038;2024-03-07T01:29:10;41.67;;;19.50;;
59418;SDS011;45224;50.904;6.038;2024-03-07T01:30:41;46.70;;;19.40;;
59418;SDS011;45224;50.904;6.038;2024-03-07T01:32:11;43.75;;;20.75;;
59418;SDS011;45224;50.904;6.038;2024-03-07T01:33:42;40.97;;;19.48;;
59418;SDS011;45224;50.904;6.038;2024-03-07T01:35:12;43.00;;;18.63;;
59418;SDS011;45224;50.904;6.038;2024-03-07T01:36:43;42.60;;;19.77;;
59418;SDS011;45224;50.904;6.038;2024-03-07T01:38:14;38.08;;;17.08;;
59418;SDS011;45224;50.904;6.038;2024-03-07T01:39:45;41.53;;;18.67;;
59418;SDS011;45224;50.904;6.038;2024-03-07T01:41:16;35.72;;;17.58;;
59418;SDS011;45224;50.904;6.038;2024-03-07T01:42:50;43.00;;;18.38;;
59418;SDS011;45224;50.904;6.038;2024-03-07T01:44:20;38.63;;;17.48;;
59418;SDS011;45224;50.904;6.038;2024-03-07T01:45:51;42.15;;;18.55;;
59418;SDS011;45224;50.904;6.038;2024-03-07T01:47:27;38.55;;;18.02;;
59418;SDS011;45224;50.904;6.038;2024-03-07T01:48:57;36.22;;;16.88;;
59418;SDS011;45224;50.904;6.038;2024-03-07T01:50:29;42.85;;;18.80;;
59418;SDS011;45224;50.904;6.038;2024-03-07T01:52:00;39.42;;;17.90;;
59418;SDS011;45224;50.904;6.038;2024-03-07T01:53:31;41.85;;;18.15;;
59418;SDS011;45224;50.904;6.038;2024-03-07T01:55:03;38.90;;;17.63;;
59418;SDS011;45224;50.904;6.038;2024-03-07T01:56:34;42.10;;;17.65;;
59418;SDS011;45224;50.904;6.038;2024-03-07T01:58:06;39.47;;;18.00;;
59418;SDS011;45224;50.904;6.038;2024-03-07T01:59:38;40.38;;;18.30;;
59418;SDS011;45224;50.904;6.038;2024-03-07T02:01:10;41.58;;;18.42;;
59418;SDS011;45224;50.904;6.038;2024-03-07T02:02:41;36.88;;;16.95;;
59418;SDS011;45224;50.904;6.038;2024-03-07T02:04:13;40.42;;;17.30;;
59418;SDS011;45224;50.904;6.038;2024-03-07T02:05:44;39.28;;;18.58;;
59418;SDS011;45224;50.904;6.038;2024-03-07T02:07:15;42.65;;;18.40;;
59418;SDS011;45224;50.904;6.038;2024-03-07T02:08:45;38.63;;;17.90;;
59418;SDS011;45224;50.904;6.038;2024-03-07T02:10:18;43.80;;;18.15;;
59418;SDS011;45224;50.904;6.038;2024-03-07T02:11:48;39.90;;;18.70;;
59418;SDS011;45224;50.904;6.038;2024-03-07T02:13:19;40.13;;;17.55;;
59418;SDS011;45224;50.904;6.038;2024-03-07T02:14:49;37.08;;;17.42;;
59418;SDS011;45224;50.904;6.038;2024-03-07T02:16:20;38.55;;;17.20;;
59418;SDS011;45224;50.904;6.038;2024-03-07T02:17:50;35.33;;;16.90;;
59418;SDS011;45224;50.904;6.038;2024-03-07T02:19:21;43.53;;;18.30;;
59418;SDS011;45224;50.904;6.038;2024-03-07T02:20:51;39.42;;;18.42;;
59418;SDS011;45224;50.904;6.038;2024-03-07T02:22:23;41.75;;;19.15;;
59418;SDS011;45224;50.904;6.038;2024-03-07T02:23:54;41.30;;;18.85;;
59418;SDS011;45224;50.904;6.038;2024-03-07T02:25:25;44.20;;;18.90;;
59418;SDS011;45224;50.904;6.038;2024-03-07T02:26:55;42.75;;;18.02;;
59418;SDS011;45224;50.904;6.038;2024-03-07T02:28:26;44.05;;;18.27;;
59418;SDS011;45224;50.904;6.038;2024-03-07T02:29:57;40.80;;;19.55;;
59418;SDS011;45224;50.904;6.038;2024-03-07T02:31:27;42.97;;;19.02;;
59418;SDS011;45224;50.904;6.038;2024-03-07T02:33:05;38.50;;;17.73;;
59418;SDS011;45224;50.904;6.038;2024-03-07T02:34:39;39.83;;;18.42;;
59418;SDS011;45224;50.904;6.038;2024-03-07T02:36:10;41.70;;;18.50;;
59418;SDS011;45224;50.904;6.038;2024-03-07T02:37:40;42.25;;;18.80;;
59418;SDS011;45224;50.904;6.038;2024-03-07T02:39:11;38.45;;;18.52;;
59418;SDS011;45224;50.904;6.038;2024-03-07T02:40:42;42.00;;;17.55;;
59418;SDS011;45224;50.904;6.038;2024-03-07T02:42:12;42.42;;;18.83;;
59418;SDS011;45224;50.904;6.038;2024-03-07T02:43:43;38.92;;;18.05;;
59418;SDS011;45224;50.904;6.038;2024-03-07T02:45:13;39.40;;;18.73;;
59418;SDS011;45224;50.904;6.038;2024-03-07T02:46:44;41.55;;;18.33;;
59418;SDS011;45224;50.904;6.038;2024-03-07T02:48:15;41.95;;;18.85;;
59418;SDS011;45224;50.904;6.038;2024-03-07T02:49:45;44.53;;;18.90;;
59418;SDS011;45224;50.904;6.038;2024-03-07T02:51:16;41.60;;;18.75;;
59418;SDS011;45224;50.904;6.038;2024-03-07T02:52:46;45.53;;;19.17;;
59418;SDS011;45224;50.904;6.038;2024-03-07T02:54:17;44.67;;;19.20;;
59418;SDS011;45224;50.904;6.038;2024-03-07T02:55:48;40.28;;;19.15;;
59418;SDS011;45224;50.904;6.038;2024-03-07T02:57:19;44.22;;;19.13;;
59418;SDS011;45224;50.904;6.038;2024-03-07T02:58:53;41.08;;;19.23;;
59418;SDS011;45224;50.904;6.038;2024-03-07T03:00:23;43.08;;;19.98;;
59418;SDS011;45224;50.904;6.038;2024-03-07T03:01:59;41.53;;;18.70;;
59418;SDS011;45224;50.904;6.038;2024-03-07T03:03:30;44.25;;;19.77;;
59418;SDS011;45224;50.904;6.038;2024-03-07T03:05:01;43.00;;;18.05;;
59418;SDS011;45224;50.904;6.038;2024-03-07T03:06:32;47.42;;;20.17;;
59418;SDS011;45224;50.904;6.038;2024-03-07T03:08:02;39.60;;;18.50;;
59418;SDS011;45224;50.904;6.038;2024-03-07T03:09:37;43.58;;;20.17;;
59418;SDS011;45224;50.904;6.038;2024-03-07T03:11:13;41.15;;;18.75;;
59418;SDS011;45224;50.904;6.038;2024-03-07T03:12:44;41.88;;;18.70;;
59418;SDS011;45224;50.904;6.038;2024-03-07T03:14:14;45.63;;;19.05;;
59418;SDS011;45224;50.904;6.038;2024-03-07T03:15:45;44.85;;;19.73;;
59418;SDS011;45224;50.904;6.038;2024-03-07T03:17:15;39.28;;;18.17;;
59418;SDS011;45224;50.904;6.038;2024-03-07T03:18:46;42.15;;;19.30;;
59418;SDS011;45224;50.904;6.038;2024-03-07T03:20:18;42.58;;;18.92;;
59418;SDS011;45224;50.904;6.038;2024-03-07T03:21:54;44.60;;;19.33;;
59418;SDS011;45224;50.904;6.038;2024-03-07T03:23:25;43.70;;;19.20;;
59418;SDS011;45224;50.904;6.038;2024-03-07T03:24:56;42.50;;;18.58;;
59418;SDS011;45224;50.904;6.038;2024-03-07T03:26:26;44.20;;;19.02;;
59418;SDS011;45224;50.904;6.038;2024-03-07T03:27:57;42.95;;;19.05;;
59418;SDS011;45224;50.904;6.038;2024-03-07T03:29:28;41.33;;;18.65;;
59418;SDS011;45224;50.904;6.038;2024-03-07T03:30:58;44.13;;;19.17;;
59418;SDS011;45224;50.904;6.038;2024-03-07T03:32:29;43.78;;;19.70;;
59418;SDS011;45224;50.904;6.038;2024-03-07T03:34:00;47.35;;;19.10;;
59418;SDS011;45224;50.904;6.038;2024-03-07T03:35:31;47.47;;;20.15;;
59418;SDS011;45224;50.904;6.038;2024-03-07T03:37:02;44.10;;;20.15;;
59418;SDS011;45224;50.904;6.038;2024-03-07T03:38:33;39.05;;;18.40;;
59418;SDS011;45224;50.904;6.038;2024-03-07T03:40:03;43.28;;;20.20;;
59418;SDS011;45224;50.904;6.038;2024-03-07T03:41:34;43.80;;;18.77;;
59418;SDS011;45224;50.904;6.038;2024-03-07T03:43:05;43.67;;;18.88;;
59418;SDS011;45224;50.904;6.038;2024-03-07T03:44:36;45.13;;;19.75;;
59418;SDS011;45224;50.904;6.038;2024-03-07T03:46:09;42.70;;;18.65;;
59418;SDS011;45224;50.904;6.038;2024-03-07T03:47:40;40.50;;;16.88;;
59418;SDS011;45224;50.904;6.038;2024-03-07T03:49:12;40.35;;;18.10;;
59418;SDS011;45224;50.904;6.038;2024-03-07T03:50:43;43.10;;;18.80;;
59418;SDS011;45224;50.904;6.038;2024-03-07T03:52:13;42.38;;;18.17;;
59418;SDS011;45224;50.904;6.038;2024-03-07T03:53:44;41.53;;;17.23;;
59418;SDS011;45224;50.904;6.038;2024-03-07T03:55:14;44.28;;;19.38;;
59418;SDS011;45224;50.904;6.038;2024-03-07T03:56:45;47.40;;;19.67;;
59418;SDS011;45224;50.904;6.038;2024-03-07T03:58:15;40.60;;;18.17;;
59418;SDS011;45224;50.904;6.038;2024-03-07T03:59:47;44.03;;;18.35;;
59418;SDS011;45224;50.904;6.038;2024-03-07T04:01:17;45.38;;;19.77;;
59418;SDS011;45224;50.904;6.038;2024-03-07T04:02:47;39.17;;;17.50;;
59418;SDS011;45224;50.904;6.038;2024-03-07T04:04:18;47.47;;;18.77;;
59418;SDS011;45224;50.904;6.038;2024-03-07T04:05:49;40.90;;;18.30;;
59418;SDS011;45224;50.904;6.038;2024-03-07T04:07:19;42.42;;;18.38;;
59418;SDS011;45224;50.904;6.038;2024-03-07T04:08:50;42.63;;;18.67;;
59418;SDS011;45224;50.904;6.038;2024-03-07T04:10:22;44.25;;;19.23;;
59418;SDS011;45224;50.904;6.038;2024-03-07T04:11:52;44.17;;;20.05;;
59418;SDS011;45224;50.904;6.038;2024-03-07T04:13:22;40.40;;;18.65;;
59418;SDS011;45224;50.904;6.038;2024-03-07T04:14:53;44.22;;;19.55;;
59418;SDS011;45224;50.904;6.038;2024-03-07T04:16:26;41.50;;;17.67;;
59418;SDS011;45224;50.904;6.038;2024-03-07T04:17:57;41.45;;;18.02;;
59418;SDS011;45224;50.904;6.038;2024-03-07T04:19:27;46.10;;;19.95;;
59418;SDS011;45224;50.904;6.038;2024-03-07T04:20:57;45.20;;;19.42;;
59418;SDS011;45224;50.904;6.038;2024-03-07T04:22:28;46.70;;;19.10;;
59418;SDS011;45224;50.904;6.038;2024-03-07T04:23:59;51.83;;;21.73;;
59418;SDS011;45224;50.904;6.038;2024-03-07T04:25:30;46.95;;;20.83;;
59418;SDS011;45224;50.904;6.038;2024-03-07T04:27:01;48.28;;;20.67;;
59418;SDS011;45224;50.904;6.038;2024-03-07T04:28:36;47.28;;;20.35;;
59418;SDS011;45224;50.904;6.038;2024-03-07T04:30:06;51.03;;;21.13;;
59418;SDS011;45224;50.904;6.038;2024-03-07T04:31:39;46.83;;;20.30;;
59418;SDS011;45224;50.904;6.038;2024-03-07T04:33:10;49.67;;;22.15;;
59418;SDS011;45224;50.904;6.038;2024-03-07T04:34:40;45.20;;;19.80;;
59418;SDS011;45224;50.904;6.038;2024-03-07T04:36:11;45.72;;;19.35;;
59418;SDS011;45224;50.904;6.038;2024-03-07T04:37:42;45.72;;;18.25;;
59418;SDS011;45224;50.904;6.038;2024-03-07T04:39:12;52.58;;;21.48;;
59418;SDS011;45224;50.904;6.038;2024-03-07T04:42:24;48.90;;;19.10;;
59418;SDS011;45224;50.904;6.038;2024-03-07T04:43:54;47.90;;;20.05;;
59418;SDS011;45224;50.904;6.038;2024-03-07T04:45:25;48.05;;;22.42;;
59418;SDS011;45224;50.904;6.038;2024-03-07T04:46:55;41.75;;;18.58;;
59418;SDS011;45224;50.904;6.038;2024-03-07T04:48:27;47.53;;;20.55;;
59418;SDS011;45224;50.904;6.038;2024-03-07T04:49:57;46.40;;;20.40;;
59418;SDS011;45224;50.904;6.038;2024-03-07T04:51:28;46.90;;;19.90;;
59418;SDS011;45224;50.904;6.038;2024-03-07T04:52:59;48.33;;;19.05;;
59418;SDS011;45224;50.904;6.038;2024-03-07T04:54:30;57.20;;;23.13;;
59418;SDS011;45224;50.904;6.038;2024-03-07T04:56:04;51.63;;;21.50;;
59418;SDS011;45224;50.904;6.038;2024-03-07T04:57:37;49.40;;;20.25;;
59418;SDS011;45224;50.904;6.038;2024-03-07T04:59:10;50.75;;;20.85;;
59418;SDS011;45224;50.904;6.038;2024-03-07T05:00:41;47.67;;;21.08;;
59418;SDS011;45224;50.904;6.038;2024-03-07T05:02:12;54.67;;;22.15;;
59418;SDS011;45224;50.904;6.038;2024-03-07T05:03:43;52.35;;;22.08;;
59418;SDS011;45224;50.904;6.038;2024-03-07T05:05:14;48.33;;;19.13;;
59418;SDS011;45224;50.904;6.038;2024-03-07T05:06:45;58.28;;;22.35;;
59418;SDS011;45224;50.904;6.038;2024-03-07T05:08:18;52.67;;;21.60;;
59418;SDS011;45224;50.904;6.038;2024-03-07T05:09:48;51.15;;;20.20;;
59418;SDS011;45224;50.904;6.038;2024-03-07T05:11:19;47.28;;;20.02;;
59418;SDS011;45224;50.904;6.038;2024-03-07T05:12:49;49.30;;;21.85;;
59418;SDS011;45224;50.904;6.038;2024-03-07T05:14:20;47.92;;;20.90;;
59418;SDS011;45224;50.904;6.038;2024-03-07T05:15:55;51.05;;;20.45;;
59418;SDS011;45224;50.904;6.038;2024-03-07T05:17:26;44.03;;;19.70;;
59418;SDS011;45224;50.904;6.038;2024-03-07T05:18:56;52.85;;;21.05;;
59418;SDS011;45224;50.904;6.038;2024-03-07T05:20:29;56.03;;;23.10;;
59418;SDS011;45224;50.904;6.038;2024-03-07T05:22:00;48.03;;;21.10;;
59418;SDS011;45224;50.904;6.038;2024-03-07T05:23:32;56.22;;;22.63;;
59418;SDS011;45224;50.904;6.038;2024-03-07T05:25:03;51.72;;;20.92;;
59418;SDS011;45224;50.904;6.038;2024-03-07T05:26:35;55.58;;;22.42;;
59418;SDS011;45224;50.904;6.038;2024-03-07T05:28:12;56.60;;;21.65;;
59418;SDS011;45224;50.904;6.038;2024-03-07T05:29:42;51.08;;;20.73;;
59418;SDS011;45224;50.904;6.038;2024-03-07T05:31:13;54.75;;;21.80;;
59418;SDS011;45224;50.904;6.038;2024-03-07T05:32:44;50.85;;;20.95;;
59418;SDS011;45224;50.904;6.038;2024-03-07T05:34:15;52.08;;;20.00;;
59418;SDS011;45224;50.904;6.038;2024-03-07T05:35:49;49.55;;;19.60;;
59418;SDS011;45224;50.904;6.038;2024-03-07T05:37:20;52.80;;;21.50;;
59418;SDS011;45224;50.904;6.038;2024-03-07T05:38:54;50.53;;;21.25;;
59418;SDS011;45224;50.904;6.038;2024-03-07T05:40:24;51.55;;;21.60;;
59418;SDS011;45224;50.904;6.038;2024-03-07T05:41:54;50.72;;;20.85;;
59418;SDS011;45224;50.904;6.038;2024-03-07T05:43:27;47.10;;;21.23;;
59418;SDS011;45224;50.904;6.038;2024-03-07T05:44:58;45.90;;;20.63;;
59418;SDS011;45224;50.904;6.038;2024-03-07T05:46:28;49.47;;;20.65;;
59418;SDS011;45224;50.904;6.038;2024-03-07T05:48:12;52.28;;;21.65;;
59418;SDS011;45224;50.904;6.038;2024-03-07T05:49:44;50.20;;;21.13;;
59418;SDS011;45224;50.904;6.038;2024-03-07T05:51:15;48.13;;;21.52;;
59418;SDS011;45224;50.904;6.038;2024-03-07T05:52:46;51.10;;;21.08;;
59418;SDS011;45224;50.904;6.038;2024-03-07T05:54:18;46.53;;;20.60;;
59418;SDS011;45224;50.904;6.038;2024-03-07T05:55:49;48.65;;;20.88;;
59418;SDS011;45224;50.904;6.038;2024-03-07T05:57:19;48.50;;;20.80;;
59418;SDS011;45224;50.904;6.038;2024-03-07T05:58:50;48.22;;;20.42;;
59418;SDS011;45224;50.904;6.038;2024-03-07T06:00:21;45.88;;;20.35;;
59418;SDS011;45224;50.904;6.038;2024-03-07T06:01:57;51.08;;;20.67;;
59418;SDS011;45224;50.904;6.038;2024-03-07T06:03:27;41.28;;;19.52;;
59418;SDS011;45224;50.904;6.038;2024-03-07T06:04:58;48.03;;;20.23;;
59418;SDS011;45224;50.904;6.038;2024-03-07T06:06:29;47.47;;;20.08;;
59418;SDS011;45224;50.904;6.038;2024-03-07T06:08:02;46.70;;;19.45;;
59418;SDS011;45224;50.904;6.038;2024-03-07T06:09:34;46.95;;;19.27;;
59418;SDS011;45224;50.904;6.038;2024-03-07T06:11:04;46.38;;;20.13;;
59418;SDS011;45224;50.904;6.038;2024-03-07T06:12:36;48.03;;;20.13;;
59418;SDS011;45224;50.904;6.038;2024-03-07T06:14:07;43.28;;;18.88;;
59418;SDS011;45224;50.904;6.038;2024-03-07T06:15:39;47.38;;;20.73;;
59418;SDS011;45224;50.904;6.038;2024-03-07T06:17:09;44.63;;;18.70;;
59418;SDS011;45224;50.904;6.038;2024-03-07T06:18:41;47.72;;;19.60;;
59418;SDS011;45224;50.904;6.038;2024-03-07T06:20:12;48.50;;;20.17;;
59418;SDS011;45224;50.904;6.038;2024-03-07T06:21:55;38.17;;;18.05;;
59418;SDS011;45224;50.904;6.038;2024-03-07T06:23:26;48.50;;;20.67;;
59418;SDS011;45224;50.904;6.038;2024-03-07T06:24:58;45.88;;;20.27;;
59418;SDS011;45224;50.904;6.038;2024-03-07T06:26:34;48.10;;;20.88;;
59418;SDS011;45224;50.904;6.038;2024-03-07T06:28:09;48.63;;;20.50;;
59418;SDS011;45224;50.904;6.038;2024-03-07T06:29:40;47.17;;;20.40;;
59418;SDS011;45224;50.904;6.038;2024-03-07T06:31:11;45.38;;;20.25;;
59418;SDS011;45224;50.904;6.038;2024-03-07T06:32:41;42.97;;;19.27;;
59418;SDS011;45224;50.904;6.038;2024-03-07T06:34:12;48.25;;;20.60;;
59418;SDS011;45224;50.904;6.038;2024-03-07T06:35:43;45.63;;;19.98;;
59418;SDS011;45224;50.904;6.038;2024-03-07T06:37:13;44.05;;;19.55;;
59418;SDS011;45224;50.904;6.038;2024-03-07T06:38:44;43.20;;;18.92;;
59418;SDS011;45224;50.904;6.038;2024-03-07T06:40:14;48.30;;;19.85;;
59418;SDS011;45224;50.904;6.038;2024-03-07T06:41:51;44.10;;;18.95;;
59418;SDS011;45224;50.904;6.038;2024-03-07T06:43:21;44.33;;;18.50;;
59418;SDS011;45224;50.904;6.038;2024-03-07T06:44:52;43.67;;;19.13;;
59418;SDS011;45224;50.904;6.038;2024-03-07T06:46:23;42.25;;;18.02;;
59418;SDS011;45224;50.904;6.038;2024-03-07T06:47:54;43.15;;;18.50;;
59418;SDS011;45224;50.904;6.038;2024-03-07T06:49:24;42.42;;;19.25;;
59418;SDS011;45224;50.904;6.038;2024-03-07T06:50:55;34.35;;;16.85;;
59418;SDS011;45224;50.904;6.038;2024-03-07T06:52:25;39.95;;;17.63;;
59418;SDS011;45224;50.904;6.038;2024-03-07T06:53:56;36.80;;;16.63;;
59418;SDS011;45224;50.904;6.038;2024-03-07T06:55:27;40.03;;;17.10;;
59418;SDS011;45224;50.904;6.038;2024-03-07T06:56:58;39.67;;;16.63;;
59418;SDS011;45224;50.904;6.038;2024-03-07T06:58:28;36.00;;;17.00;;
59418;SDS011;45224;50.904;6.038;2024-03-07T06:59:58;31.80;;;16.60;;
59418;SDS011;45224;50.904;6.038;2024-03-07T07:01:29;32.97;;;15.55;;
59418;SDS011;45224;50.904;6.038;2024-03-07T07:03:00;35.78;;;16.45;;
59418;SDS011;45224;50.904;6.038;2024-03-07T07:04:33;36.88;;;17.85;;
59418;SDS011;45224;50.904;6.038;2024-03-07T07:06:17;32.92;;;15.82;;
59418;SDS011;45224;50.904;6.038;2024-03-07T07:07:49;37.50;;;17.58;;
59418;SDS011;45224;50.904;6.038;2024-03-07T07:09:19;36.45;;;17.88;;
59418;SDS011;45224;50.904;6.038;2024-03-07T07:10:50;35.63;;;17.15;;
59418;SDS011;45224;50.904;6.038;2024-03-07T07:12:20;35.83;;;15.75;;
59418;SDS011;45224;50.904;6.038;2024-03-07T07:13:51;32.50;;;15.80;;
59418;SDS011;45224;50.904;6.038;2024-03-07T07:15:21;34.05;;;16.08;;
59418;SDS011;45224;50.904;6.038;2024-03-07T07:16:52;40.78;;;17.58;;
59418;SDS011;45224;50.904;6.038;2024-03-07T07:18:22;32.65;;;15.73;;
59418;SDS011;45224;50.904;6.038;2024-03-07T07:19:54;31.88;;;15.55;;
59418;SDS011;45224;50.904;6.038;2024-03-07T07:21:26;34.50;;;16.20;;
59418;SDS011;45224;50.904;6.038;2024-03-07T07:22:56;34.85;;;16.63;;
59418;SDS011;45224;50.904;6.038;2024-03-07T07:26:00;30.52;;;15.65;;
59418;SDS011;45224;50.904;6.038;2024-03-07T07:27:31;32.88;;;15.57;;
59418;SDS011;45224;50.904;6.038;2024-03-07T07:29:03;32.95;;;15.82;;
59418;SDS011;45224;50.904;6.038;2024-03-07T07:30:34;33.28;;;16.58;;
59418;SDS011;45224;50.904;6.038;2024-03-07T07:32:05;32.67;;;15.23;;
59418;SDS011;45224;50.904;6.038;2024-03-07T07:33:36;35.70;;;16.73;;
59418;SDS011;45224;50.904;6.038;2024-03-07T07:35:06;30.77;;;15.18;;
59418;SDS011;45224;50.904;6.038;2024-03-07T07:36:41;28.25;;;15.38;;
59418;SDS011;45224;50.904;6.038;2024-03-07T07:38:12;33.35;;;15.88;;
59418;SDS011;45224;50.904;6.038;2024-03-07T07:39:44;32.80;;;16.58;;
59418;SDS011;45224;50.904;6.038;2024-03-07T07:41:16;31.00;;;14.90;;
59418;SDS011;45224;50.904;6.038;2024-03-07T07:42:47;35.08;;;15.38;;
59418;SDS011;45224;50.904;6.038;2024-03-07T07:44:19;35.47;;;15.93;;
59418;SDS011;45224;50.904;6.038;2024-03-07T07:45:49;30.17;;;15.25;;
59418;SDS011;45224;50.904;6.038;2024-03-07T07:47:20;33.42;;;16.13;;
59418;SDS011;45224;50.904;6.038;2024-03-07T07:48:50;34.05;;;16.33;;
59418;SDS011;45224;50.904;6.038;2024-03-07T07:50:21;30.30;;;14.20;;
59418;SDS011;45224;50.904;6.038;2024-03-07T07:51:53;34.92;;;16.30;;
59418;SDS011;45224;50.904;6.038;2024-03-07T07:53:24;31.73;;;15.27;;
59418;SDS011;45224;50.904;6.038;2024-03-07T07:54:54;31.83;;;16.10;;
59418;SDS011;45224;50.904;6.038;2024-03-07T07:56:24;31.60;;;15.35;;
59418;SDS011;45224;50.904;6.038;2024-03-07T07:57:59;32.35;;;15.48;;
59418;SDS011;45224;50.904;6.038;2024-03-07T07:59:29;34.10;;;14.88;;
59418;SDS011;45224;50.904;6.038;2024-03-07T08:02:33;30.88;;;14.40;;
59418;SDS011;45224;50.904;6.038;2024-03-07T08:04:03;29.17;;;15.02;;
59418;SDS011;45224;50.904;6.038;2024-03-07T08:05:35;28.75;;;14.70;;
59418;SDS011;45224;50.904;6.038;2024-03-07T08:07:06;31.15;;;15.13;;
59418;SDS011;45224;50.904;6.038;2024-03-07T08:08:37;29.92;;;13.65;;
59418;SDS011;45224;50.904;6.038;2024-03-07T08:10:08;29.63;;;15.00;;
59418;SDS011;45224;50.904;6.038;2024-03-07T08:11:38;30.10;;;14.43;;
59418;SDS011;45224;50.904;6.038;2024-03-07T08:13:09;33.22;;;15.75;;
59418;SDS011;45224;50.904;6.038;2024-03-07T08:14:40;28.13;;;14.27;;
59418;SDS011;45224;50.904;6.038;2024-03-07T08:16:11;30.30;;;15.38;;
59418;SDS011;45224;50.904;6.038;2024-03-07T08:17:45;30.48;;;15.43;;
59418;SDS011;45224;50.904;6.038;2024-03-07T08:19:16;28.50;;;15.02;;
59418;SDS011;45224;50.904;6.038;2024-03-07T08:20:47;26.45;;;14.27;;
59418;SDS011;45224;50.904;6.038;2024-03-07T08:22:17;29.88;;;14.70;;
59418;SDS011;45224;50.904;6.038;2024-03-07T08:23:49;28.75;;;14.70;;
59418;SDS011;45224;50.904;6.038;2024-03-07T08:25:20;29.88;;;15.35;;
59418;SDS011;45224;50.904;6.038;2024-03-07T08:26:53;29.88;;;16.20;;
59418;SDS011;45224;50.904;6.038;2024-03-07T08:28:23;27.80;;;14.75;;
59418;SDS011;45224;50.904;6.038;2024-03-07T08:29:54;24.80;;;13.30;;
59418;SDS011;45224;50.904;6.038;2024-03-07T08:31:24;33.83;;;15.20;;
59418;SDS011;45224;50.904;6.038;2024-03-07T08:32:56;29.77;;;15.05;;
59418;SDS011;45224;50.904;6.038;2024-03-07T08:34:27;27.35;;;13.65;;
59418;SDS011;45224;50.904;6.038;2024-03-07T08:35:57;32.05;;;14.10;;
59418;SDS011;45224;50.904;6.038;2024-03-07T08:37:27;26.58;;;13.73;;
59418;SDS011;45224;50.904;6.038;2024-03-07T08:38:58;25.58;;;14.25;;
59418;SDS011;45224;50.904;6.038;2024-03-07T08:40:29;25.80;;;14.07;;
59418;SDS011;45224;50.904;6.038;2024-03-07T08:42:04;28.08;;;15.18;;
59418;SDS011;45224;50.904;6.038;2024-03-07T08:43:34;25.70;;;14.50;;
59418;SDS011;45224;50.904;6.038;2024-03-07T08:45:05;31.00;;;14.50;;
59418;SDS011;45224;50.904;6.038;2024-03-07T08:46:36;28.55;;;14.98;;
59418;SDS011;45224;50.904;6.038;2024-03-07T08:48:06;28.38;;;14.20;;
59418;SDS011;45224;50.904;6.038;2024-03-07T08:49:38;24.35;;;13.60;;
59418;SDS011;45224;50.904;6.038;2024-03-07T08:51:09;25.38;;;14.05;;
59418;SDS011;45224;50.904;6.038;2024-03-07T08:52:40;32.30;;;15.57;;
59418;SDS011;45224;50.904;6.038;2024-03-07T08:54:11;25.08;;;14.13;;
59418;SDS011;45224;50.904;6.038;2024-03-07T08:55:41;25.45;;;14.05;;
59418;SDS011;45224;50.904;6.038;2024-03-07T08:57:13;25.63;;;15.02;;
59418;SDS011;45224;50.904;6.038;2024-03-07T08:58:47;25.55;;;14.63;;
59418;SDS011;45224;50.904;6.038;2024-03-07T09:00:18;27.33;;;13.88;;